Alfred, NY (14802)

5:55 PM EDT on August 24, 2016 (GMT -0400)
Ardachy Farm | | Change Station

Elev 1877 ft 42.28 °N, 77.77 °W | Updated 19 seconds ago

Scattered Clouds
Scattered Clouds
81.1 °F
Feels Like 81 °F
N
8.0
Wind Variable Wind from South
Gusts 11.0 mph

Today
High -- | Low -- °F
--% Chance of Precip.
Yesterday
High -- | Low -- °F
Precip. -- in
Pressure 30.17 in
Visibility 10.0 miles
Clouds Scattered Clouds 5000 ft
Heat Index 81 °F
Dew Point 55 °F
Humidity 41%
Rainfall 0.00 in
Snow Depth Not available.
6:28 AM 7:57 PM
Waning Gibbous, 53% visible
METAR KELZ 242056Z AUTO 22006G16KT 10SM SCT050 27/15 A3019 RMK AO2 SLP214 T02720150 56017
Pressure 30.17 in
Visibility 10.0 miles
Clouds Scattered Clouds 5000 ft
Heat Index 81 °F
Dew Point 55 °F
Humidity 41%
Rainfall 0.00 in
Snow Depth Not available.
6:28 AM 7:57 PM
Waning Gibbous, 53% visible
METAR KELZ 242056Z AUTO 22006G16KT 10SM SCT050 27/15 A3019 RMK AO2 SLP214 T02720150 56017

10-Day Weather Forecast

Almanac

Astronomy

Aug. 24, 2016 Rise Set
Actual Time
Civil Twilight
Nautical Twilight
Astronomical Twilight
Moon
Length of Visible Light
Length of Day
Tomorrow will be .
, % of the Moon is Illuminated

Today's Extremes

State Highs State Lows

Community

WunderPhotos

Upload Photos

1,934,722 photos uploaded!

WunderBlog® & News

Nearby

Air Quality

  Air Quality AQ Index Pollutant
Not available.

Snow Depth

Station Depth Elevation

Earthquake Activity

City Distance Mag. Time & Date
Minimum magnitude displayed is 2.5.

Coastal Water Temperatures

Place Temperature

Stations

Nearby Weather Stations

Station Location Temp. Windchill Dew Point Humidity Wind Precip. Elev Updated Type
                   

Watches & Warnings

There are currently no watches in effect.